createdAt,value
2022-09-10T00:01:35.875Z,15.55
2022-09-10T00:04:06.844Z,15.53
2022-09-10T00:06:34.926Z,15.51
2022-09-10T00:09:01.696Z,15.50
2022-09-10T00:11:31.625Z,15.48
2022-09-10T00:14:00.872Z,15.47
2022-09-10T00:16:28.922Z,15.46
2022-09-10T00:18:59.889Z,15.44
2022-09-10T00:21:27.359Z,15.41
2022-09-10T00:23:53.874Z,15.39
2022-09-10T00:26:23.485Z,15.40
2022-09-10T00:28:53.508Z,15.38
2022-09-10T00:31:22.118Z,15.36
2022-09-10T00:33:50.326Z,15.35
2022-09-10T00:36:23.712Z,15.34
2022-09-10T00:38:51.736Z,15.33
2022-09-10T00:41:20.331Z,15.33
2022-09-10T00:43:55.144Z,15.33
2022-09-10T00:46:42.896Z,15.34
2022-09-10T00:49:20.704Z,15.36
2022-09-10T00:51:49.710Z,15.37
2022-09-10T00:54:19.729Z,15.38
2022-09-10T00:56:49.052Z,15.41
2022-09-10T00:59:20.722Z,15.43
2022-09-10T01:01:48.765Z,15.44
2022-09-10T01:04:15.505Z,15.45
2022-09-10T01:06:45.925Z,15.46
2022-09-10T01:09:13.841Z,15.46
2022-09-10T01:12:04.274Z,15.46
2022-09-10T01:14:53.909Z,15.45
2022-09-10T01:17:20.401Z,15.45
2022-09-10T01:19:56.168Z,15.46
2022-09-10T01:22:49.042Z,15.49
2022-09-10T01:25:40.168Z,15.53
2022-09-10T01:28:17.273Z,15.58
2022-09-10T01:30:50.953Z,15.62
2022-09-10T01:33:42.505Z,15.66
2022-09-10T01:36:18.701Z,15.70
2022-09-10T01:38:46.290Z,15.73
2022-09-10T01:41:13.184Z,15.76
2022-09-10T01:43:42.407Z,15.77
2022-09-10T01:46:24.787Z,15.78
2022-09-10T01:49:03.399Z,15.79
2022-09-10T01:51:46.120Z,15.79
2022-09-10T01:54:30.801Z,15.81
2022-09-10T01:57:14.481Z,15.83
2022-09-10T01:59:53.097Z,15.85
2022-09-10T02:02:51.644Z,15.88
2022-09-10T02:05:22.921Z,15.91
2022-09-10T02:08:04.777Z,15.93
2022-09-10T02:10:31.931Z,15.95
2022-09-10T02:12:59.136Z,15.97
2022-09-10T02:15:42.868Z,15.99
2022-09-10T02:18:22.891Z,16.02
2022-09-10T02:20:52.486Z,16.03
2022-09-10T02:23:24.253Z,16.05
2022-09-10T02:25:50.989Z,16.06
2022-09-10T02:28:17.991Z,16.08
2022-09-10T02:30:47.738Z,16.10
2022-09-10T02:33:18.112Z,16.10
2022-09-10T02:35:47.047Z,16.11
2022-09-10T02:38:13.822Z,16.12
2022-09-10T02:40:42.629Z,16.12
2022-09-10T02:43:09.645Z,16.13
2022-09-10T02:45:38.515Z,16.14
2022-09-10T02:48:05.098Z,16.14
2022-09-10T02:50:35.521Z,16.15
2022-09-10T02:53:02.624Z,16.15
2022-09-10T02:55:30.762Z,16.16
2022-09-10T02:57:57.877Z,16.15
2022-09-10T03:00:24.599Z,16.15
2022-09-10T03:02:51.418Z,16.15
2022-09-10T03:05:18.174Z,16.15
2022-09-10T03:07:44.936Z,16.15
2022-09-10T03:10:11.612Z,16.16
2022-09-10T03:12:38.746Z,16.16
2022-09-10T03:15:06.426Z,16.16
2022-09-10T03:17:33.273Z,16.16
2022-09-10T03:19:59.901Z,16.16
2022-09-10T03:22:26.671Z,16.15
2022-09-10T03:24:54.509Z,16.15
2022-09-10T03:27:22.244Z,16.14
2022-09-10T03:29:49.036Z,16.15
2022-09-10T03:32:15.795Z,16.14
2022-09-10T03:34:43.678Z,16.14
2022-09-10T03:37:10.239Z,16.14
2022-09-10T03:39:36.915Z,16.15
2022-09-10T03:42:04.610Z,16.15
2022-09-10T03:44:32.904Z,16.15
2022-09-10T03:47:00.380Z,16.15
2022-09-10T03:49:27.936Z,16.15
2022-09-10T03:51:55.333Z,16.14
2022-09-10T03:54:23.225Z,16.13
2022-09-10T03:56:50.982Z,16.13
2022-09-10T03:59:18.093Z,16.12
2022-09-10T04:01:45.192Z,16.12
2022-09-10T04:04:12.273Z,16.12
2022-09-10T04:06:40.001Z,16.13
2022-09-10T04:09:06.620Z,16.14
2022-09-10T04:11:33.226Z,16.15
2022-09-10T04:14:00.351Z,16.15
2022-09-10T04:16:27.956Z,16.16
2022-09-10T04:18:55.150Z,16.17
2022-09-10T04:21:22.695Z,16.19
2022-09-10T04:23:56.552Z,16.20
2022-09-10T04:26:24.805Z,16.22
2022-09-10T04:28:52.921Z,16.22
2022-09-10T04:31:19.967Z,16.22
2022-09-10T04:33:46.953Z,16.22
2022-09-10T04:36:15.164Z,16.22
2022-09-10T04:38:43.515Z,16.21
2022-09-10T04:41:14.918Z,16.20
2022-09-10T04:43:43.147Z,16.21
2022-09-10T04:46:10.117Z,16.22
2022-09-10T04:48:39.424Z,16.23
2022-09-10T04:51:16.092Z,16.25
2022-09-10T04:53:45.928Z,16.27
2022-09-10T04:56:12.847Z,16.30
2022-09-10T04:58:40.741Z,16.32
2022-09-10T05:01:08.229Z,16.33
2022-09-10T05:03:35.563Z,16.35
2022-09-10T05:06:04.384Z,16.37
2022-09-10T05:08:31.778Z,16.41
2022-09-10T05:11:02.290Z,16.43
2022-09-10T05:13:32.525Z,16.44
2022-09-10T05:16:00.523Z,16.45
2022-09-10T05:18:27.333Z,16.47
2022-09-10T05:20:54.175Z,16.48
2022-09-10T05:23:21.295Z,16.49
2022-09-10T05:25:48.187Z,16.51
2022-09-10T05:28:15.880Z,16.52
2022-09-10T05:30:49.513Z,16.53
2022-09-10T05:33:21.490Z,16.54
2022-09-10T05:35:52.003Z,16.55
2022-09-10T05:38:19.972Z,16.57
2022-09-10T05:40:47.671Z,16.59
2022-09-10T05:43:14.810Z,16.60
2022-09-10T05:45:43.578Z,16.62
2022-09-10T05:48:10.287Z,16.63
2022-09-10T05:50:38.013Z,16.64
2022-09-10T05:53:04.965Z,16.67
2022-09-10T05:55:32.736Z,16.70
2022-09-10T05:58:00.719Z,16.77
2022-09-10T06:00:27.544Z,16.85
2022-09-10T06:02:59.983Z,16.94
2022-09-10T06:05:31.561Z,17.01
2022-09-10T06:07:59.292Z,17.06
2022-09-10T06:10:26.081Z,17.11
2022-09-10T06:12:52.786Z,17.16
2022-09-10T06:15:20.641Z,17.22
2022-09-10T06:17:49.122Z,17.29
2022-09-10T06:20:19.745Z,17.38
2022-09-10T06:22:46.878Z,17.47
2022-09-10T06:25:13.840Z,17.57
2022-09-10T06:27:41.022Z,17.66
2022-09-10T06:30:08.321Z,17.75
2022-09-10T06:32:38.641Z,17.82
2022-09-10T06:35:05.918Z,17.86
2022-09-10T06:37:33.960Z,17.89
2022-09-10T06:40:03.335Z,17.92
2022-09-10T06:42:31.573Z,17.93
2022-09-10T06:45:13.362Z,17.94
2022-09-10T06:50:58.717Z,17.95
2022-09-10T06:53:33.401Z,17.97
2022-09-10T06:56:03.013Z,17.99
2022-09-10T06:58:36.392Z,18.02
2022-09-10T07:01:22.194Z,18.08
2022-09-10T07:03:58.412Z,18.18
2022-09-10T07:06:29.102Z,18.39
2022-09-10T07:09:04.445Z,18.60
2022-09-10T07:11:40.694Z,18.77
2022-09-10T07:14:13.252Z,18.94
2022-09-10T07:16:44.971Z,19.03
2022-09-10T07:19:14.463Z,19.16
2022-09-10T07:21:44.244Z,19.30
2022-09-10T07:24:13.885Z,19.44
2022-09-10T07:26:47.273Z,19.60
2022-09-10T07:29:13.841Z,19.76
2022-09-10T07:31:41.098Z,19.94
2022-09-10T07:34:12.175Z,20.13
2022-09-10T07:36:38.750Z,20.34
2022-09-10T07:39:05.406Z,20.61
2022-09-10T07:41:35.430Z,20.86
2022-09-10T07:44:04.780Z,21.07
2022-09-10T07:46:37.423Z,21.30
2022-09-10T07:49:08.824Z,21.52
2022-09-10T07:51:35.854Z,21.71
2022-09-10T07:54:02.801Z,21.87
2022-09-10T07:56:37.383Z,22.03
2022-09-10T07:59:06.586Z,22.24
2022-09-10T08:01:41.962Z,22.45
2022-09-10T08:04:09.260Z,22.66
2022-09-10T08:06:37.186Z,22.87
2022-09-10T08:09:06.643Z,23.09
2022-09-10T08:11:34.514Z,23.36
2022-09-10T08:14:04.182Z,23.59
2022-09-10T08:16:32.507Z,23.76
2022-09-10T08:19:04.885Z,23.95
2022-09-10T08:21:31.996Z,24.18
2022-09-10T08:24:02.105Z,24.44
2022-09-10T08:26:32.980Z,24.72
2022-09-10T08:29:02.236Z,24.95
2022-09-10T08:31:29.092Z,25.19
2022-09-10T08:34:01.653Z,25.48
2022-09-10T08:36:28.918Z,25.74
2022-09-10T08:39:00.728Z,25.97
2022-09-10T08:41:39.178Z,26.27
2022-09-10T08:44:12.978Z,26.58
2022-09-10T08:46:48.761Z,26.70
2022-09-10T08:49:29.606Z,26.75
2022-09-10T08:52:26.606Z,26.70
2022-09-10T08:55:15.104Z,26.66
2022-09-10T08:57:48.350Z,26.57
2022-09-10T09:00:20.798Z,26.51
2022-09-10T09:03:12.098Z,26.46
2022-09-10T09:05:48.519Z,26.44
2022-09-10T09:08:21.214Z,26.42
2022-09-10T09:10:55.943Z,26.41
2022-09-10T09:13:22.533Z,26.33
2022-09-10T09:15:58.829Z,26.30
2022-09-10T09:18:47.587Z,26.26
2022-09-10T09:21:27.128Z,26.16
2022-09-10T09:24:12.786Z,26.07
2022-09-10T09:26:49.372Z,25.95
2022-09-10T09:29:25.089Z,25.85
2022-09-10T09:31:59.972Z,25.65
2022-09-10T09:34:35.770Z,25.47
2022-09-10T09:37:11.906Z,25.35
2022-09-10T09:40:06.048Z,25.23
2022-09-10T09:42:58.702Z,25.09
2022-09-10T09:45:42.698Z,25.08
2022-09-10T09:48:15.329Z,25.16
2022-09-10T09:50:45.974Z,25.18
2022-09-10T09:53:19.870Z,25.20
2022-09-10T09:55:51.455Z,25.16
2022-09-10T09:58:21.167Z,25.05
2022-09-10T10:01:02.968Z,25.01
2022-09-10T10:03:42.053Z,24.97
2022-09-10T10:06:11.665Z,24.87
2022-09-10T10:08:57.072Z,24.83
2022-09-10T10:11:41.592Z,24.82
2022-09-10T10:14:37.593Z,24.80
2022-09-10T10:17:31.900Z,24.75
2022-09-10T10:20:17.058Z,24.68
2022-09-10T10:22:45.919Z,24.62
2022-09-10T10:25:36.000Z,24.59
2022-09-10T10:28:03.075Z,24.58
2022-09-10T10:30:31.492Z,24.56
2022-09-10T10:33:04.588Z,24.49
2022-09-10T10:35:43.646Z,24.41
2022-09-10T10:38:31.281Z,24.34
2022-09-10T10:41:30.396Z,24.27
2022-09-10T10:45:17.209Z,24.14
2022-09-10T10:48:50.798Z,24.15
2022-09-10T10:51:49.144Z,24.45
2022-09-10T10:55:11.170Z,24.64
2022-09-10T11:01:39.048Z,24.82
2022-09-10T11:09:40.299Z,24.69
2022-09-10T11:12:32.030Z,24.70
2022-09-10T11:15:16.563Z,24.70
2022-09-10T11:18:12.964Z,24.65
2022-09-10T11:21:42.437Z,24.57
2022-09-10T11:24:24.248Z,24.53
2022-09-10T11:27:10.464Z,24.53
2022-09-10T11:30:04.376Z,24.57
2022-09-10T11:32:40.720Z,24.80
2022-09-10T11:35:57.615Z,25.15
2022-09-10T11:39:32.783Z,25.65
2022-09-10T11:42:17.645Z,26.00
2022-09-10T11:45:32.448Z,26.12
2022-09-10T11:48:36.114Z,26.06
2022-09-10T11:51:23.546Z,26.05
2022-09-10T11:53:54.836Z,26.06
2022-09-10T11:56:59.174Z,25.94
2022-09-10T11:59:50.288Z,25.72
2022-09-10T12:04:02.542Z,25.48
2022-09-10T12:10:35.427Z,24.67
2022-09-10T12:17:48.448Z,24.19
2022-09-10T12:29:02.556Z,23.24
2022-09-10T12:32:09.796Z,22.93
2022-09-10T12:34:58.230Z,22.68
2022-09-10T12:37:45.624Z,22.40
2022-09-10T12:40:29.959Z,22.06
2022-09-10T12:43:39.683Z,21.73
2022-09-10T12:46:09.361Z,21.38
2022-09-10T12:48:46.955Z,21.06
2022-09-10T12:51:16.486Z,20.72
2022-09-10T12:54:31.283Z,20.41
2022-09-10T12:57:19.907Z,20.06
2022-09-10T12:59:58.429Z,19.77
2022-09-10T13:02:30.539Z,19.56
2022-09-10T13:05:22.123Z,19.35
2022-09-10T13:08:18.061Z,19.13
2022-09-10T13:11:05.165Z,18.96
2022-09-10T13:13:44.714Z,18.84
2022-09-10T13:16:34.545Z,18.74
2022-09-10T13:19:13.379Z,18.64
2022-09-10T13:21:40.229Z,18.54
2022-09-10T13:24:36.398Z,18.48
2022-09-10T13:27:12.381Z,18.45
2022-09-10T13:30:11.229Z,18.42
2022-09-10T13:32:46.373Z,18.40
2022-09-10T13:35:16.775Z,18.38
2022-09-10T13:38:01.797Z,18.37
2022-09-10T13:40:45.020Z,18.37
2022-09-10T13:43:30.633Z,18.36
2022-09-10T13:46:02.176Z,18.35
2022-09-10T13:48:43.140Z,18.34
2022-09-10T13:51:32.802Z,18.33
2022-09-10T13:54:25.056Z,18.34
2022-09-10T13:56:54.164Z,18.34
2022-09-10T13:59:30.579Z,18.36
2022-09-10T14:01:59.043Z,18.37
2022-09-10T14:04:31.518Z,18.39
2022-09-10T14:07:22.585Z,18.40
2022-09-10T14:09:56.302Z,18.41
2022-09-10T14:12:27.617Z,18.42
2022-09-10T14:14:59.784Z,18.45
2022-09-10T14:17:50.314Z,18.48
2022-09-10T14:20:17.519Z,18.54
2022-09-10T14:22:44.783Z,18.63
2022-09-10T14:25:30.879Z,18.75
2022-09-10T14:28:16.389Z,18.87
2022-09-10T14:30:44.770Z,18.95
2022-09-10T14:33:29.307Z,19.01
2022-09-10T14:35:58.455Z,19.05
2022-09-10T14:38:35.757Z,19.07
2022-09-10T14:41:18.083Z,19.09
2022-09-10T14:43:45.319Z,19.09
2022-09-10T14:46:34.388Z,19.09
2022-09-10T14:49:10.579Z,19.10
2022-09-10T14:51:37.295Z,19.16
2022-09-10T14:54:04.246Z,19.18
2022-09-10T14:56:40.599Z,19.19
2022-09-10T14:59:21.874Z,19.28
2022-09-10T15:01:49.046Z,19.40
2022-09-10T15:04:18.727Z,19.50
2022-09-10T15:06:45.652Z,19.60
2022-09-10T15:09:14.305Z,19.71
2022-09-10T15:11:48.799Z,19.77
2022-09-10T15:14:17.789Z,19.75
2022-09-10T15:16:44.741Z,19.66
2022-09-10T15:19:11.449Z,19.62
2022-09-10T15:21:39.665Z,19.55
2022-09-10T15:24:07.395Z,19.49
2022-09-10T15:26:34.250Z,19.50
2022-09-10T15:29:01.292Z,19.58
2022-09-10T15:31:32.487Z,19.62
2022-09-10T15:33:59.686Z,19.61
2022-09-10T15:36:27.859Z,19.57
2022-09-10T15:38:55.367Z,19.50
2022-09-10T15:41:22.874Z,19.43
2022-09-10T15:43:50.449Z,19.38
2022-09-10T15:46:18.008Z,19.33
2022-09-10T15:48:46.898Z,19.28
2022-09-10T15:51:16.631Z,19.24
2022-09-10T15:53:43.651Z,19.19
2022-09-10T15:56:11.493Z,19.14
2022-09-10T15:58:39.167Z,19.06
2022-09-10T16:01:11.541Z,19.03
2022-09-10T16:03:46.217Z,18.98
2022-09-10T16:06:15.082Z,18.91
2022-09-10T16:08:41.963Z,18.85
2022-09-10T16:11:13.120Z,18.77
2022-09-10T16:13:40.948Z,18.72
2022-09-10T16:16:11.537Z,18.64
2022-09-10T16:18:38.545Z,18.54
2022-09-10T16:21:12.948Z,18.49
2022-09-10T16:23:41.742Z,18.41
2022-09-10T16:26:15.302Z,18.34
2022-09-10T16:28:57.273Z,18.28
2022-09-10T16:31:28.175Z,18.20
2022-09-10T16:33:58.130Z,18.12
2022-09-10T16:36:26.693Z,18.06
2022-09-10T16:38:55.777Z,17.99
2022-09-10T16:41:24.310Z,17.92
2022-09-10T16:43:52.123Z,17.86
2022-09-10T16:50:35.036Z,17.69
2022-09-10T16:53:02.141Z,17.62
2022-09-10T16:55:29.614Z,17.54
2022-09-10T16:57:57.135Z,17.49
2022-09-10T17:00:27.684Z,17.44
2022-09-10T17:02:58.639Z,17.38
2022-09-10T17:05:26.068Z,17.31
2022-09-10T17:07:52.989Z,17.25
2022-09-10T17:10:20.135Z,17.17
2022-09-10T17:12:46.863Z,17.13
2022-09-10T17:15:14.859Z,17.09
2022-09-10T17:17:41.669Z,17.04
2022-09-10T17:20:09.022Z,16.99
2022-09-10T17:22:35.893Z,16.94
2022-09-10T17:25:02.865Z,16.94
2022-09-10T17:27:32.635Z,16.89
2022-09-10T17:29:59.714Z,16.85
2022-09-10T17:32:26.695Z,16.80
2022-09-10T17:34:55.896Z,16.75
2022-09-10T17:37:23.972Z,16.70
2022-09-10T17:39:54.064Z,16.65
2022-09-10T17:42:23.328Z,16.60
2022-09-10T17:44:54.224Z,16.54
2022-09-10T17:47:29.160Z,16.49
2022-09-10T17:50:03.949Z,16.45
2022-09-10T17:52:32.498Z,16.40
2022-09-10T17:58:32.149Z,16.37
2022-09-10T18:01:07.352Z,16.36
2022-09-10T18:03:35.961Z,16.35
2022-09-10T18:06:10.365Z,16.33
2022-09-10T18:08:45.592Z,16.34
2022-09-10T18:11:24.839Z,16.33
2022-09-10T18:14:01.569Z,16.32
2022-09-10T18:16:31.780Z,16.31
2022-09-10T18:19:01.482Z,16.29
2022-09-10T18:21:34.997Z,16.31
2022-09-10T18:24:16.687Z,16.31
2022-09-10T18:26:46.705Z,16.30
2022-09-10T18:29:21.324Z,16.30
2022-09-10T18:31:51.714Z,16.32
2022-09-10T18:34:26.639Z,16.33
2022-09-10T18:37:01.683Z,16.33
2022-09-10T18:39:33.447Z,16.35
2022-09-10T18:42:00.814Z,16.35
2022-09-10T18:44:33.711Z,16.35
2022-09-10T18:47:00.919Z,16.34
2022-09-10T18:49:28.795Z,16.33
2022-09-10T18:51:58.597Z,16.31
2022-09-10T18:54:29.652Z,16.30
2022-09-10T18:56:59.790Z,16.27
2022-09-10T18:59:29.446Z,16.24
2022-09-10T19:02:16.343Z,16.23
2022-09-10T19:05:12.596Z,16.17
2022-09-10T19:07:40.488Z,16.17
2022-09-10T19:10:13.755Z,16.16
2022-09-10T19:12:53.933Z,16.14
2022-09-10T19:15:33.255Z,16.12
2022-09-10T19:18:06.555Z,16.10
2022-09-10T19:20:37.572Z,16.07
2022-09-10T19:23:20.607Z,16.05
2022-09-10T19:26:00.486Z,16.02
2022-09-10T19:28:47.113Z,15.98
2022-09-10T19:31:22.559Z,15.96
2022-09-10T19:34:01.333Z,15.93
2022-09-10T19:36:33.071Z,15.90
2022-09-10T19:39:13.767Z,15.86
2022-09-10T19:41:43.216Z,15.82
2022-09-10T19:44:13.518Z,15.77
2022-09-10T19:46:41.089Z,15.73
2022-09-10T19:49:09.844Z,15.70
2022-09-10T19:51:39.042Z,15.66
2022-09-10T19:54:06.531Z,15.62
2022-09-10T19:56:37.491Z,15.57
2022-09-10T19:59:14.118Z,15.54
2022-09-10T20:01:43.309Z,15.50
2022-09-10T20:04:15.644Z,15.46
2022-09-10T20:06:50.038Z,15.43
2022-09-10T20:09:18.610Z,15.35
2022-09-10T20:11:46.920Z,15.33
2022-09-10T20:14:14.478Z,15.29
2022-09-10T20:16:44.257Z,15.24
2022-09-10T20:19:14.308Z,15.19
2022-09-10T20:21:41.760Z,15.14
2022-09-10T20:24:10.348Z,15.07
2022-09-10T20:26:41.369Z,15.00
2022-09-10T20:29:13.918Z,14.94
2022-09-10T20:31:45.803Z,14.87
2022-09-10T20:34:20.348Z,14.81
2022-09-10T20:36:52.059Z,14.75
2022-09-10T20:39:26.556Z,14.68
2022-09-10T20:41:57.466Z,14.60
2022-09-10T20:44:25.599Z,14.56
2022-09-10T20:46:53.157Z,14.51
2022-09-10T20:49:23.756Z,14.47
2022-09-10T20:51:55.036Z,14.43
2022-09-10T20:54:22.551Z,14.39
2022-09-10T20:56:52.266Z,14.36
2022-09-10T20:59:20.837Z,14.31
2022-09-10T21:01:51.807Z,14.26
2022-09-10T21:04:19.391Z,14.22
2022-09-10T21:06:46.090Z,14.18
2022-09-10T21:09:13.037Z,14.14
2022-09-10T21:11:39.952Z,14.09
2022-09-10T21:14:07.794Z,14.11
2022-09-10T21:16:40.860Z,14.10
2022-09-10T21:19:11.531Z,14.09
2022-09-10T21:21:39.600Z,14.08
2022-09-10T21:24:17.822Z,14.09
2022-09-10T21:26:44.747Z,14.10
2022-09-10T21:29:19.245Z,14.09
2022-09-10T21:31:46.902Z,14.07
2022-09-10T21:34:14.224Z,14.06
2022-09-10T21:36:41.598Z,14.03
2022-09-10T21:39:13.972Z,14.00
2022-09-10T21:41:48.647Z,13.99
2022-09-10T21:44:19.191Z,13.99
2022-09-10T21:46:48.071Z,13.99
2022-09-10T21:49:15.368Z,13.99
2022-09-10T21:51:42.735Z,13.98
2022-09-10T21:54:19.950Z,13.96
2022-09-10T21:56:50.303Z,13.93
2022-09-10T21:59:20.086Z,13.89
2022-09-10T22:01:48.087Z,13.87
2022-09-10T22:04:21.514Z,13.85
2022-09-10T22:06:54.064Z,13.83
2022-09-10T22:09:21.396Z,13.82
2022-09-10T22:11:51.437Z,13.82
2022-09-10T22:14:22.733Z,13.82
2022-09-10T22:16:50.136Z,13.82
2022-09-10T22:19:21.457Z,13.81
2022-09-10T22:21:49.639Z,13.80
2022-09-10T22:24:19.243Z,13.78
2022-09-10T22:26:46.823Z,13.76
2022-09-10T22:29:19.869Z,13.74
2022-09-10T22:31:47.920Z,13.71
2022-09-10T22:34:16.820Z,13.69
2022-09-10T22:36:45.389Z,13.66
2022-09-10T22:39:23.231Z,13.64
2022-09-10T22:41:50.854Z,13.62
2022-09-10T22:44:19.329Z,13.61
2022-09-10T22:46:46.478Z,13.59
2022-09-10T22:49:16.550Z,13.58
2022-09-10T22:51:45.295Z,13.57
2022-09-10T22:54:12.466Z,13.56
2022-09-10T22:56:39.442Z,13.55
2022-09-10T22:59:10.702Z,13.55
2022-09-10T23:01:38.619Z,13.54
2022-09-10T23:04:07.152Z,13.52
2022-09-10T23:06:37.308Z,13.52
2022-09-10T23:09:11.762Z,13.50
2022-09-10T23:11:40.152Z,13.50
2022-09-10T23:14:10.873Z,13.50
2022-09-10T23:16:43.728Z,13.50
2022-09-10T23:19:15.808Z,13.52
2022-09-10T23:21:46.361Z,13.55
2022-09-10T23:24:16.659Z,13.57
2022-09-10T23:26:46.938Z,13.58
2022-09-10T23:29:18.042Z,13.59
2022-09-10T23:31:46.245Z,13.61
2022-09-10T23:34:15.688Z,13.63
2022-09-10T23:36:44.839Z,13.64
2022-09-10T23:39:22.927Z,13.66
2022-09-10T23:41:52.296Z,13.68
2022-09-10T23:44:19.790Z,13.68
2022-09-10T23:46:46.583Z,13.69
2022-09-10T23:49:13.661Z,13.70
2022-09-10T23:51:40.568Z,13.70
2022-09-10T23:54:08.424Z,13.70
2022-09-10T23:56:35.051Z,13.69
2022-09-10T23:59:02.915Z,13.69
